Easton, New Hampshire
Current Conditions -  °F | °C
As of 5:55 AM on Saturday 22 Nov 2014 (Local Time) from K1P1 Reporting Station
Overcast Overcast  
Wind Chill: -10°   Ceiling: 3800
Heat Index: -10°   Visibility: 10mi
Dew Point: -10°   Wind: 0mph
Humidity: 95%   Direction: NA
Pressure: 30.33"   Gusts: NA
Location:  44.1173°N, 71.8999°W
Report Text: K1P1 221055Z AUTO 00000KT 10SM OVC038 M09/M10 A3033 RMK AO2 T10951101
Loading
Personal Weather Stations






























Interactive Weather Map New forecast layout! Learn more

10-Day Weather Forecast

Advertisements
Track Severe Weather on mobile